createdAt,value
2019-05-07T00:02:15.522Z,100885.06
2019-05-07T00:04:48.671Z,100890.78
2019-05-07T00:07:24.204Z,100877.84
2019-05-07T00:09:57.039Z,100887.20
2019-05-07T00:12:32.301Z,100895.48
2019-05-07T00:15:05.036Z,100899.56
2019-05-07T00:17:38.078Z,100902.61
2019-05-07T00:20:12.722Z,100907.20
2019-05-07T00:22:44.884Z,100909.21
2019-05-07T00:25:17.350Z,100902.61
2019-05-07T00:27:52.174Z,100904.02
2019-05-07T00:30:23.882Z,100905.19
2019-05-07T00:32:56.370Z,100902.06
2019-05-07T00:35:32.578Z,100901.40
2019-05-07T00:38:08.817Z,100902.11
2019-05-07T00:41:02.958Z,100905.88
2019-05-07T00:43:38.321Z,100896.40
2019-05-07T00:46:22.883Z,100887.13
2019-05-07T00:48:57.449Z,100885.38
2019-05-07T00:51:33.324Z,100882.11
2019-05-07T00:54:07.837Z,100880.47
2019-05-07T00:56:40.255Z,100876.40
2019-05-07T00:59:13.195Z,100888.73
2019-05-07T01:01:45.698Z,100892.86
2019-05-07T01:04:18.350Z,100891.22
2019-05-07T01:06:52.995Z,100887.23
2019-05-07T01:09:25.328Z,100883.25
2019-05-07T01:11:58.105Z,100894.03
2019-05-07T01:14:32.534Z,100890.84
2019-05-07T01:17:05.036Z,100894.83
2019-05-07T01:19:38.294Z,100898.02
2019-05-07T01:22:12.617Z,100887.14
2019-05-07T01:24:45.328Z,100890.89
2019-05-07T01:27:18.541Z,100894.05
2019-05-07T01:29:52.747Z,100900.27
2019-05-07T01:32:34.704Z,100898.86
2019-05-07T01:35:15.462Z,100902.62
2019-05-07T01:37:48.552Z,100895.13
2019-05-07T01:40:22.802Z,100888.33
2019-05-07T01:42:56.175Z,100898.63
2019-05-07T01:45:42.226Z,100891.61
2019-05-07T01:48:04.434Z,100897.23
2019-05-07T01:50:37.216Z,100899.58
2019-05-07T01:53:12.224Z,100906.03
2019-05-07T01:55:45.159Z,100904.39
2019-05-07T01:58:17.543Z,100903.33
2019-05-07T02:00:50.015Z,100905.56
2019-05-07T02:03:32.872Z,100902.89
2019-05-07T02:06:14.702Z,100916.34
2019-05-07T02:08:53.138Z,100917.98
2019-05-07T02:11:33.645Z,100912.59
2019-05-07T02:14:06.630Z,100908.95
2019-05-07T02:16:41.926Z,100911.90
2019-05-07T02:19:14.382Z,100909.45
2019-05-07T02:21:47.018Z,100914.84
2019-05-07T02:24:19.403Z,100916.02
2019-05-07T02:26:52.133Z,100913.81
2019-05-07T02:29:24.605Z,100919.30
2019-05-07T02:31:57.444Z,100932.88
2019-05-07T02:34:29.820Z,100930.67
2019-05-07T02:37:04.015Z,100934.28
2019-05-07T02:39:44.359Z,100939.91
2019-05-07T02:42:17.166Z,100931.24
2019-05-07T02:45:06.654Z,100930.07
2019-05-07T02:47:39.574Z,100943.98
2019-05-07T02:50:18.967Z,100955.69
2019-05-07T02:53:04.305Z,100956.53
2019-05-07T02:55:43.429Z,100962.95
2019-05-07T02:58:14.953Z,100965.43
2019-05-07T03:00:47.847Z,100974.00
2019-05-07T03:03:20.579Z,100981.53
2019-05-07T03:05:53.726Z,100988.45
2019-05-07T03:08:27.514Z,100991.23
2019-05-07T03:11:03.034Z,101004.58
2019-05-07T03:13:34.436Z,101003.90
2019-05-07T03:16:07.355Z,101010.33
2019-05-07T03:18:39.933Z,101010.92
2019-05-07T03:21:19.234Z,101007.88
2019-05-07T03:24:04.354Z,101000.48
2019-05-07T03:26:43.459Z,101008.78
2019-05-07T03:29:23.640Z,101005.77
2019-05-07T03:32:16.017Z,101021.09
2019-05-07T03:35:08.506Z,101019.09
2019-05-07T03:37:44.207Z,101011.83
2019-05-07T03:40:15.917Z,101013.14
2019-05-07T03:42:48.510Z,101004.34
2019-05-07T03:45:37.922Z,101021.57
2019-05-07T03:48:32.984Z,101015.48
2019-05-07T03:51:04.716Z,101020.60
2019-05-07T03:53:37.107Z,101024.92
2019-05-07T03:56:12.929Z,101030.64
2019-05-07T03:58:44.295Z,101034.39
2019-05-07T04:01:16.892Z,101043.53
2019-05-07T04:03:49.680Z,101051.22
2019-05-07T04:06:23.389Z,101053.43
2019-05-07T04:08:56.253Z,101055.64
2019-05-07T04:11:28.863Z,101051.02
2019-05-07T04:14:04.080Z,101043.14
2019-05-07T04:16:37.893Z,101031.54
2019-05-07T04:19:13.258Z,101029.01
2019-05-07T04:21:44.576Z,101029.31
2019-05-07T04:24:24.220Z,101031.23
2019-05-07T04:27:03.789Z,101026.47
2019-05-07T04:29:42.591Z,101030.98
2019-05-07T04:32:15.984Z,101030.78
2019-05-07T04:35:05.486Z,101030.90
2019-05-07T04:37:38.353Z,101023.14
2019-05-07T04:40:13.254Z,101032.36
2019-05-07T04:42:45.120Z,101041.59
2019-05-07T04:45:17.871Z,101038.48
2019-05-07T04:47:53.562Z,101047.84
2019-05-07T04:50:39.255Z,101051.55
2019-05-07T04:53:02.771Z,101055.20
2019-05-07T04:55:35.686Z,101057.64
2019-05-07T04:58:09.111Z,101060.60
2019-05-07T05:00:43.201Z,101061.32
2019-05-07T05:03:20.038Z,101064.97
2019-05-07T05:05:53.452Z,101065.62
2019-05-07T05:08:26.209Z,101069.05
2019-05-07T05:10:58.990Z,101063.42
2019-05-07T05:13:33.156Z,101068.25
2019-05-07T05:16:24.939Z,101065.06
2019-05-07T05:18:58.906Z,101067.95
2019-05-07T05:21:41.968Z,101059.96
2019-05-07T05:24:18.774Z,101067.66
2019-05-07T05:26:52.562Z,101065.34
2019-05-07T05:29:25.013Z,101072.66
2019-05-07T05:31:57.761Z,101076.08
2019-05-07T05:34:32.752Z,101085.38
2019-05-07T05:37:04.967Z,101089.30
2019-05-07T05:39:37.688Z,101090.72
2019-05-07T05:42:26.197Z,101090.58
2019-05-07T05:44:58.838Z,101089.11
2019-05-07T05:47:32.966Z,101089.52
2019-05-07T05:50:07.351Z,101084.61
2019-05-07T05:52:53.780Z,101089.48
2019-05-07T05:55:26.588Z,101095.13
2019-05-07T05:58:15.681Z,101087.58
2019-05-07T06:01:04.141Z,101089.91
2019-05-07T06:04:02.982Z,101078.28
2019-05-07T06:06:42.353Z,101077.11
2019-05-07T06:09:46.066Z,101079.06
2019-05-07T06:12:32.942Z,101071.97
2019-05-07T06:15:22.080Z,101075.94
2019-05-07T06:18:18.770Z,101081.45
2019-05-07T06:21:02.894Z,101078.73
2019-05-07T06:23:42.031Z,101073.27
2019-05-07T06:26:15.489Z,101065.42
2019-05-07T06:28:48.321Z,101070.34
2019-05-07T06:31:22.161Z,101071.55
2019-05-07T06:33:55.985Z,101075.15
2019-05-07T06:36:32.695Z,101085.81
2019-05-07T06:39:15.212Z,101088.56
2019-05-07T06:42:04.764Z,101093.62
2019-05-07T06:44:37.590Z,101089.06
2019-05-07T06:47:12.483Z,101086.11
2019-05-07T06:49:44.962Z,101081.72
2019-05-07T06:52:17.754Z,101087.27
2019-05-07T06:54:52.323Z,101094.36
2019-05-07T06:57:27.059Z,101099.03
2019-05-07T07:00:02.857Z,101112.38
2019-05-07T07:02:52.359Z,101112.28
2019-05-07T07:05:42.618Z,101106.33
2019-05-07T07:08:24.298Z,101112.75
2019-05-07T07:11:31.976Z,101120.34
2019-05-07T07:14:04.649Z,101123.15
2019-05-07T07:16:37.186Z,101129.84
2019-05-07T07:19:12.354Z,101131.31
2019-05-07T07:21:44.479Z,101131.76
2019-05-07T07:24:17.063Z,101124.13
2019-05-07T07:26:49.630Z,101120.12
2019-05-07T07:29:24.133Z,101110.02
2019-05-07T07:31:59.589Z,101109.42
2019-05-07T07:34:34.881Z,101120.84
2019-05-07T07:37:17.953Z,101118.39
2019-05-07T07:39:52.445Z,101119.02
2019-05-07T07:42:25.512Z,101125.70
2019-05-07T07:45:16.245Z,101121.02
2019-05-07T07:47:49.721Z,101121.89
2019-05-07T07:50:23.509Z,101125.95
2019-05-07T07:52:55.907Z,101127.55
2019-05-07T07:55:39.785Z,101127.95
2019-05-07T07:58:32.209Z,101119.65
2019-05-07T08:01:12.732Z,101120.89
2019-05-07T08:03:45.181Z,101126.08
2019-05-07T08:06:17.737Z,101128.36
2019-05-07T08:08:50.384Z,101129.36
2019-05-07T08:11:23.081Z,101123.93
2019-05-07T08:13:56.567Z,101126.41
2019-05-07T08:16:33.747Z,101125.17
2019-05-07T08:19:18.314Z,101126.14
2019-05-07T08:21:42.143Z,101115.76
2019-05-07T08:24:14.941Z,101112.84
2019-05-07T08:26:47.850Z,101117.64
2019-05-07T08:29:22.341Z,101106.89
2019-05-07T08:32:12.622Z,101112.66
2019-05-07T08:35:07.667Z,101111.03
2019-05-07T08:37:42.593Z,101106.63
2019-05-07T08:40:14.950Z,101111.76
2019-05-07T08:42:47.504Z,101114.95
2019-05-07T08:45:38.081Z,101111.07
2019-05-07T08:48:15.941Z,101116.73
2019-05-07T08:50:48.829Z,101113.25
2019-05-07T08:53:22.518Z,101108.78
2019-05-07T08:55:55.484Z,101115.68
2019-05-07T08:58:28.125Z,101109.61
2019-05-07T09:01:03.003Z,101107.44
2019-05-07T09:03:44.578Z,101109.04
2019-05-07T09:06:21.983Z,101103.66
2019-05-07T09:08:54.014Z,101104.20
2019-05-07T09:11:26.538Z,101105.38
2019-05-07T09:13:59.074Z,101098.97
2019-05-07T09:16:32.012Z,101106.80
2019-05-07T09:19:04.554Z,101105.48
2019-05-07T09:21:37.547Z,101104.63
2019-05-07T09:24:12.190Z,101093.30
2019-05-07T09:26:58.222Z,101094.00
2019-05-07T09:29:42.581Z,101103.73
2019-05-07T09:32:39.441Z,101099.18
2019-05-07T09:35:16.058Z,101114.13
2019-05-07T09:37:48.434Z,101100.80
2019-05-07T09:40:21.822Z,101100.44
2019-05-07T09:42:55.687Z,101098.52
2019-05-07T09:45:32.642Z,101104.17
2019-05-07T09:48:05.783Z,101105.59
2019-05-07T09:50:38.319Z,101101.35
2019-05-07T09:53:12.657Z,101101.80
2019-05-07T09:55:44.926Z,101102.48
2019-05-07T09:58:17.304Z,101107.11
2019-05-07T10:00:50.023Z,101105.14
2019-05-07T10:03:22.887Z,101100.20
2019-05-07T10:05:55.545Z,101100.80
2019-05-07T10:08:28.109Z,101100.27
2019-05-07T10:11:02.684Z,101094.83
2019-05-07T10:13:42.028Z,101100.88
2019-05-07T10:16:18.149Z,101084.89
2019-05-07T10:18:52.241Z,101093.91
2019-05-07T10:21:24.841Z,101083.39
2019-05-07T10:23:57.679Z,101088.34
2019-05-07T10:26:32.139Z,101087.23
2019-05-07T10:29:05.460Z,101087.23
2019-05-07T10:31:39.669Z,101085.31
2019-05-07T10:34:12.979Z,101093.87
2019-05-07T10:36:46.381Z,101081.70
2019-05-07T10:39:19.334Z,101090.00
2019-05-07T10:42:01.822Z,101084.21
2019-05-07T10:44:43.299Z,101085.19
2019-05-07T10:47:48.764Z,101087.92
2019-05-07T10:50:36.293Z,101088.91
2019-05-07T10:53:02.237Z,101088.12
2019-05-07T10:55:35.134Z,101079.09
2019-05-07T10:58:13.934Z,101077.02
2019-05-07T11:00:46.669Z,101079.41
2019-05-07T11:03:19.212Z,101073.31
2019-05-07T11:05:54.128Z,101069.20
2019-05-07T11:08:26.757Z,101066.10
2019-05-07T11:10:59.455Z,101065.08
2019-05-07T11:13:32.302Z,101067.56
2019-05-07T11:16:09.262Z,101058.55
2019-05-07T11:18:51.616Z,101060.80
2019-05-07T11:21:33.634Z,101074.10
2019-05-07T11:24:07.247Z,101068.66
2019-05-07T11:26:41.996Z,101063.98
2019-05-07T11:29:15.468Z,101066.48
2019-05-07T11:31:52.499Z,101067.48
2019-05-07T11:34:25.998Z,101068.12
2019-05-07T11:36:59.029Z,101052.96
2019-05-07T11:39:33.201Z,101071.66
2019-05-07T11:42:17.936Z,101065.52
2019-05-07T11:44:52.174Z,101050.45
2019-05-07T11:47:29.303Z,101050.50
2019-05-07T11:50:22.473Z,101039.72
2019-05-07T11:53:00.812Z,101042.45
2019-05-07T11:55:34.609Z,101036.09
2019-05-07T11:58:08.688Z,101035.12
2019-05-07T12:01:05.059Z,101026.30
2019-05-07T12:03:38.537Z,101031.24
2019-05-07T12:06:12.434Z,101026.56
2019-05-07T12:08:51.396Z,101020.81
2019-05-07T12:11:21.875Z,101024.34
2019-05-07T12:13:57.258Z,101017.05
2019-05-07T12:16:29.319Z,101022.98
2019-05-07T12:19:02.448Z,101018.20
2019-05-07T12:21:36.010Z,101019.70
2019-05-07T12:24:08.858Z,101014.98
2019-05-07T12:26:42.858Z,101016.87
2019-05-07T12:29:15.450Z,101017.84
2019-05-07T12:32:19.012Z,101026.47
2019-05-07T12:34:56.566Z,101025.80
2019-05-07T12:37:29.206Z,101023.55
2019-05-07T12:40:01.976Z,101021.52
2019-05-07T12:42:34.686Z,101016.47
2019-05-07T12:45:08.088Z,101013.16
2019-05-07T12:47:42.185Z,101014.62
2019-05-07T12:50:15.305Z,101010.25
2019-05-07T12:53:02.065Z,101004.28
2019-05-07T12:55:42.864Z,101004.94
2019-05-07T12:58:16.050Z,101002.41
2019-05-07T13:00:54.088Z,100994.28
2019-05-07T13:03:42.652Z,100998.52
2019-05-07T13:06:14.865Z,100988.18
2019-05-07T13:08:47.944Z,100984.86
2019-05-07T13:11:22.176Z,100976.70
2019-05-07T13:13:55.344Z,100978.28
2019-05-07T13:16:27.993Z,100976.64
2019-05-07T13:19:01.922Z,100979.86
2019-05-07T13:21:46.412Z,100974.95
2019-05-07T13:24:09.541Z,100974.52
2019-05-07T13:26:42.720Z,100977.72
2019-05-07T13:29:15.993Z,100975.73
2019-05-07T13:31:53.898Z,100970.89
2019-05-07T13:34:24.772Z,100976.53
2019-05-07T13:37:02.635Z,100974.32
2019-05-07T13:39:43.094Z,100972.63
2019-05-07T13:42:33.183Z,100975.28
2019-05-07T13:45:16.716Z,100975.56
2019-05-07T13:48:14.652Z,100970.09
2019-05-07T13:50:47.909Z,100970.78
2019-05-07T13:53:22.700Z,100976.36
2019-05-07T13:55:55.903Z,100973.70
2019-05-07T13:58:28.459Z,100972.87
2019-05-07T14:01:08.948Z,100975.64
2019-05-07T14:03:41.524Z,100978.69
2019-05-07T14:06:16.815Z,100970.70
2019-05-07T14:08:51.699Z,100984.52
2019-05-07T14:11:23.667Z,100981.28
2019-05-07T14:13:56.826Z,100976.47
2019-05-07T14:16:32.460Z,100980.34
2019-05-07T14:19:07.321Z,100978.95
2019-05-07T14:21:41.966Z,100973.45
2019-05-07T14:24:14.845Z,100973.89
2019-05-07T14:26:47.906Z,100974.32
2019-05-07T14:29:24.853Z,100977.19
2019-05-07T14:32:19.050Z,100977.27
2019-05-07T14:35:08.427Z,100980.36
2019-05-07T14:37:44.509Z,100986.72
2019-05-07T14:40:18.254Z,100989.84
2019-05-07T14:42:56.181Z,100992.35
2019-05-07T14:45:32.635Z,100998.94
2019-05-07T14:48:05.388Z,101001.15
2019-05-07T14:50:37.885Z,101003.77
2019-05-07T14:53:11.977Z,101003.66
2019-05-07T14:55:45.014Z,101005.13
2019-05-07T14:58:17.530Z,101016.58
2019-05-07T15:00:51.785Z,101002.94
2019-05-07T15:03:24.186Z,101005.30
2019-05-07T15:05:56.865Z,101010.42
2019-05-07T15:08:32.184Z,101010.67
2019-05-07T15:11:04.583Z,101009.09
2019-05-07T15:13:37.670Z,101014.17
2019-05-07T15:16:12.425Z,101021.47
2019-05-07T15:18:56.374Z,101016.92
2019-05-07T15:21:28.986Z,101020.83
2019-05-07T15:24:02.309Z,101018.76
2019-05-07T15:26:36.715Z,101019.33
2019-05-07T15:29:12.790Z,101018.86
2019-05-07T15:32:04.688Z,101022.28
2019-05-07T15:34:37.283Z,101033.67
2019-05-07T15:37:12.145Z,101031.58
2019-05-07T15:39:44.630Z,101026.09
2019-05-07T15:42:17.006Z,101030.41
2019-05-07T15:44:49.720Z,101031.96
2019-05-07T15:47:28.038Z,101034.91
2019-05-07T15:50:00.696Z,101042.89
2019-05-07T15:52:58.254Z,101043.26
2019-05-07T15:55:25.484Z,101046.20
2019-05-07T15:57:58.764Z,101047.12
2019-05-07T16:00:33.467Z,101053.31
2019-05-07T16:03:27.636Z,101051.10
2019-05-07T16:06:03.581Z,101045.61
2019-05-07T16:08:37.998Z,101049.50
2019-05-07T16:11:12.438Z,101052.08
2019-05-07T16:13:49.404Z,101047.86
2019-05-07T16:16:26.975Z,101048.90
2019-05-07T16:19:12.623Z,101056.40
2019-05-07T16:21:45.634Z,101058.61
2019-05-07T16:24:18.288Z,101058.14
2019-05-07T16:26:52.370Z,101052.52
2019-05-07T16:29:25.098Z,101053.13
2019-05-07T16:31:57.797Z,101054.20
2019-05-07T16:34:32.396Z,101053.96
2019-05-07T16:37:07.298Z,101058.64
2019-05-07T16:39:38.833Z,101056.30
2019-05-07T16:42:11.562Z,101058.64
2019-05-07T16:44:44.601Z,101064.41
2019-05-07T16:47:17.545Z,101060.05
2019-05-07T16:49:50.224Z,101069.90
2019-05-07T16:52:22.977Z,101076.92
2019-05-07T16:54:55.395Z,101071.10
2019-05-07T16:57:53.013Z,101067.83
2019-05-07T17:00:33.340Z,101067.59
2019-05-07T17:03:08.068Z,101080.38
2019-05-07T17:05:42.894Z,101078.50
2019-05-07T17:08:28.761Z,101075.22
2019-05-07T17:11:03.087Z,101073.48
2019-05-07T17:13:36.173Z,101071.27
2019-05-07T17:16:09.108Z,101076.42
2019-05-07T17:18:42.462Z,101074.34
2019-05-07T17:21:14.900Z,101077.02
2019-05-07T17:23:47.817Z,101081.83
2019-05-07T17:26:23.028Z,101091.44
2019-05-07T17:28:55.001Z,101078.31
2019-05-07T17:31:27.738Z,101090.97
2019-05-07T17:34:02.243Z,101087.48
2019-05-07T17:36:34.799Z,101091.46
2019-05-07T17:39:11.976Z,101092.97
2019-05-07T17:41:43.974Z,101095.34
2019-05-07T17:44:16.518Z,101091.95
2019-05-07T17:46:48.870Z,101099.63
2019-05-07T17:49:21.944Z,101102.33
2019-05-07T17:51:54.348Z,101099.66
2019-05-07T17:54:27.406Z,101101.16
2019-05-07T17:57:02.001Z,101100.71
2019-05-07T17:59:34.194Z,101109.47
2019-05-07T18:02:42.153Z,101110.41
2019-05-07T18:05:15.553Z,101111.13
2019-05-07T18:07:48.184Z,101111.02
2019-05-07T18:10:21.756Z,101113.34
2019-05-07T18:12:56.070Z,101122.70
2019-05-07T18:15:28.739Z,101131.49
2019-05-07T18:18:05.276Z,101129.61
2019-05-07T18:20:38.086Z,101130.30
2019-05-07T18:23:16.640Z,101130.55
2019-05-07T18:25:45.874Z,101130.78
2019-05-07T18:28:18.850Z,101129.25
2019-05-07T18:30:51.465Z,101128.45
2019-05-07T18:33:52.423Z,101133.83
2019-05-07T18:36:25.183Z,101136.39
2019-05-07T18:38:58.379Z,101135.92
2019-05-07T18:41:32.656Z,101134.75
2019-05-07T18:44:12.358Z,101139.56
2019-05-07T18:46:41.897Z,101141.53
2019-05-07T18:49:15.642Z,101145.75
2019-05-07T18:51:49.546Z,101143.17
2019-05-07T18:54:30.460Z,101138.61
2019-05-07T18:57:02.325Z,101140.97
2019-05-07T18:59:37.514Z,101144.70
2019-05-07T19:02:11.756Z,101142.83
2019-05-07T19:04:44.232Z,101145.87
2019-05-07T19:07:16.727Z,101146.11
2019-05-07T19:09:49.259Z,101145.63
2019-05-07T19:12:25.267Z,101147.96
2019-05-07T19:14:58.593Z,101151.49
2019-05-07T19:17:34.815Z,101149.94
2019-05-07T19:20:08.680Z,101148.90
2019-05-07T19:22:42.443Z,101147.86
2019-05-07T19:25:15.878Z,101144.45
2019-05-07T19:27:48.416Z,101145.37
2019-05-07T19:30:21.788Z,101150.19
2019-05-07T19:32:54.382Z,101141.88
2019-05-07T19:35:26.997Z,101135.43
2019-05-07T19:37:59.526Z,101138.59
2019-05-07T19:40:32.543Z,101140.00
2019-05-07T19:43:06.259Z,101137.44
2019-05-07T19:45:38.899Z,101139.40
2019-05-07T19:48:12.476Z,101136.83
2019-05-07T19:50:44.887Z,101134.38
2019-05-07T19:53:20.386Z,101136.95
2019-05-07T19:56:15.980Z,101135.67
2019-05-07T19:58:48.872Z,101137.77
2019-05-07T20:01:25.970Z,101138.81
2019-05-07T20:04:02.576Z,101141.02
2019-05-07T20:06:35.352Z,101131.79
2019-05-07T20:09:13.056Z,101143.25
2019-05-07T20:11:49.456Z,101145.70
2019-05-07T20:14:22.433Z,101148.75
2019-05-07T20:16:55.378Z,101150.98
2019-05-07T20:19:28.233Z,101143.97
2019-05-07T20:22:02.129Z,101149.34
2019-05-07T20:24:35.069Z,101147.11
2019-05-07T20:27:07.500Z,101144.30
2019-05-07T20:29:40.095Z,101132.50
2019-05-07T20:32:12.709Z,101132.50
2019-05-07T20:34:47.967Z,101133.55
2019-05-07T20:37:22.012Z,101134.95
2019-05-07T20:39:56.977Z,101145.62
2019-05-07T20:42:29.475Z,101139.77
2019-05-07T20:45:03.024Z,101128.30
2019-05-07T20:47:36.078Z,101131.34
2019-05-07T20:50:09.300Z,101132.50
2019-05-07T20:52:42.766Z,101137.64
2019-05-07T20:55:30.827Z,101134.95
2019-05-07T20:58:03.232Z,101132.15
2019-05-07T21:00:36.268Z,101126.30
2019-05-07T21:03:23.425Z,101134.48
2019-05-07T21:05:55.754Z,101128.27
2019-05-07T21:08:28.551Z,101125.78
2019-05-07T21:11:02.505Z,101131.31
2019-05-07T21:13:35.558Z,101135.20
2019-05-07T21:16:08.015Z,101125.13
2019-05-07T21:18:42.117Z,101119.84
2019-05-07T21:21:14.935Z,101129.43
2019-05-07T21:23:47.438Z,101123.66
2019-05-07T21:26:22.271Z,101123.10
2019-05-07T21:28:54.343Z,101113.60
2019-05-07T21:31:26.804Z,101111.03
2019-05-07T21:33:59.481Z,101109.88
2019-05-07T21:36:32.540Z,101115.72
2019-05-07T21:39:07.054Z,101112.68
2019-05-07T21:41:39.470Z,101113.27
2019-05-07T21:44:12.391Z,101106.27
2019-05-07T21:46:44.795Z,101102.38
2019-05-07T21:49:17.803Z,101099.93
2019-05-07T21:51:52.318Z,101095.72
2019-05-07T21:54:43.628Z,101096.88
2019-05-07T21:57:33.010Z,101091.88
2019-05-07T22:00:22.131Z,101088.11
2019-05-07T22:02:54.704Z,101082.94
2019-05-07T22:05:27.143Z,101083.55
2019-05-07T22:08:01.816Z,101079.22
2019-05-07T22:10:34.515Z,101074.08
2019-05-07T22:13:06.945Z,101069.98
2019-05-07T22:15:39.624Z,101073.87
2019-05-07T22:18:12.700Z,101069.06
2019-05-07T22:20:45.181Z,101072.47
2019-05-07T22:23:17.559Z,101069.98
2019-05-07T22:25:50.126Z,101069.51
2019-05-07T22:28:22.572Z,101062.62
2019-05-07T22:31:14.056Z,101051.27
2019-05-07T22:34:04.071Z,101053.27
2019-05-07T22:36:36.731Z,101046.95
2019-05-07T22:39:09.978Z,101045.07
2019-05-07T22:41:42.605Z,101041.45
2019-05-07T22:44:15.590Z,101037.34
2019-05-07T22:46:48.228Z,101035.49
2019-05-07T22:49:22.915Z,101031.61
2019-05-07T22:51:55.489Z,101033.37
2019-05-07T22:54:28.334Z,101028.33
2019-05-07T22:57:14.200Z,101027.77
2019-05-07T22:59:46.715Z,101024.12
2019-05-07T23:02:20.032Z,101019.11
2019-05-07T23:04:52.983Z,101020.87
2019-05-07T23:07:25.600Z,101007.65
2019-05-07T23:09:58.048Z,101010.81
2019-05-07T23:12:32.658Z,101011.86
2019-05-07T23:15:05.191Z,101000.63
2019-05-07T23:17:38.038Z,101009.73
2019-05-07T23:20:11.152Z,100998.08
2019-05-07T23:22:44.437Z,101003.45
2019-05-07T23:25:17.016Z,101000.97
2019-05-07T23:27:49.400Z,100995.95
2019-05-07T23:30:22.430Z,100997.59
2019-05-07T23:32:55.210Z,100999.80
2019-05-07T23:35:27.583Z,100991.39
2019-05-07T23:38:02.462Z,100986.02
2019-05-07T23:40:58.715Z,100984.05
2019-05-07T23:43:31.405Z,100975.40
2019-05-07T23:46:04.235Z,100981.34
2019-05-07T23:48:36.812Z,100982.97
2019-05-07T23:51:09.342Z,100974.08
2019-05-07T23:53:44.173Z,100976.45
2019-05-07T23:56:16.503Z,100969.19
2019-05-07T23:58:49.227Z,100968.36
